createdAt,value
2023-03-24T00:02:13.831Z,98678.95
2023-03-24T00:05:38.523Z,98680.41
2023-03-24T00:09:04.021Z,98678.23
2023-03-24T00:12:28.048Z,98681.41
2023-03-24T00:15:51.952Z,98679.66
2023-03-24T00:19:16.189Z,98678.80
2023-03-24T00:22:42.452Z,98676.70
2023-03-24T00:26:15.354Z,98677.45
2023-03-24T00:29:40.312Z,98674.77
2023-03-24T00:33:04.458Z,98675.47
2023-03-24T00:36:29.844Z,98668.84
2023-03-24T00:39:54.195Z,98665.20
2023-03-24T00:43:19.200Z,98665.70
2023-03-24T00:46:46.340Z,98665.21
2023-03-24T00:50:17.253Z,98667.68
2023-03-24T00:53:43.760Z,98666.79
2023-03-24T00:57:13.040Z,98670.10
2023-03-24T01:00:42.481Z,98673.31
2023-03-24T01:04:07.280Z,98673.52
2023-03-24T01:07:31.760Z,98675.40
2023-03-24T01:10:57.403Z,98675.72
2023-03-24T01:14:21.508Z,98677.39
2023-03-24T01:17:47.260Z,98669.66
2023-03-24T01:21:13.264Z,98665.90
2023-03-24T01:24:37.230Z,98663.02
2023-03-24T01:28:01.176Z,98661.31
2023-03-24T01:31:25.059Z,98660.56
2023-03-24T01:34:49.294Z,98662.23
2023-03-24T01:38:15.444Z,98666.60
2023-03-24T01:41:42.372Z,98659.45
2023-03-24T01:45:40.913Z,98663.89
2023-03-24T01:49:09.215Z,98666.83
2023-03-24T01:52:37.385Z,98665.09
2023-03-24T01:56:03.360Z,98665.39
2023-03-24T01:59:36.725Z,98666.92
2023-03-24T02:03:12.709Z,98664.17
2023-03-24T02:06:45.129Z,98667.19
2023-03-24T02:10:14.604Z,98668.55
2023-03-24T02:13:38.456Z,98668.17
2023-03-24T02:17:23.937Z,98672.73
2023-03-24T02:21:23.657Z,98673.05
2023-03-24T02:25:12.618Z,98670.88
2023-03-24T02:28:39.645Z,98667.73
2023-03-24T02:32:33.257Z,98667.54
2023-03-24T02:36:20.275Z,98667.46
2023-03-24T02:40:07.053Z,98665.94
2023-03-24T02:43:44.605Z,98667.67
2023-03-24T02:47:19.038Z,98664.44
2023-03-24T02:50:57.490Z,98670.46
2023-03-24T02:54:48.362Z,98674.54
2023-03-24T02:58:21.042Z,98674.13
2023-03-24T03:02:05.296Z,98671.19
2023-03-24T03:05:43.509Z,98667.94
2023-03-24T03:09:12.399Z,98661.71
2023-03-24T03:12:39.225Z,98666.79
2023-03-24T03:16:10.541Z,98666.98
2023-03-24T03:19:39.861Z,98663.70
2023-03-24T03:23:14.378Z,98662.35
2023-03-24T03:26:39.220Z,98659.70
2023-03-24T03:30:12.317Z,98661.41
2023-03-24T03:33:45.758Z,98664.27
2023-03-24T03:37:44.827Z,98660.04
2023-03-24T03:41:10.823Z,98653.96
2023-03-24T03:44:35.496Z,98655.63
2023-03-24T03:47:59.552Z,98660.54
2023-03-24T03:51:23.650Z,98660.80
2023-03-24T03:54:54.107Z,98664.30
2023-03-24T03:58:18.082Z,98663.05
2023-03-24T04:01:50.792Z,98662.53
2023-03-24T04:06:19.861Z,98662.39
2023-03-24T04:10:09.475Z,98662.40
2023-03-24T04:14:11.433Z,98659.10
2023-03-24T04:18:00.610Z,98654.70
2023-03-24T04:21:59.480Z,98652.52
2023-03-24T04:25:35.215Z,98655.41
2023-03-24T04:29:19.605Z,98660.52
2023-03-24T04:33:00.301Z,98660.89
2023-03-24T04:36:42.811Z,98660.00
2023-03-24T04:40:27.363Z,98660.23
2023-03-24T04:43:51.781Z,98656.65
2023-03-24T04:47:16.541Z,98655.45
2023-03-24T04:50:57.432Z,98655.83
2023-03-24T04:54:23.505Z,98655.27
2023-03-24T04:57:50.407Z,98653.55
2023-03-24T05:01:17.225Z,98658.89
2023-03-24T05:04:45.940Z,98663.14
2023-03-24T05:08:16.577Z,98663.70
2023-03-24T05:11:40.920Z,98666.01
2023-03-24T05:15:07.004Z,98665.14
2023-03-24T05:18:33.867Z,98668.88
2023-03-24T05:21:57.763Z,98664.45
2023-03-24T05:25:22.030Z,98662.30
2023-03-24T05:28:46.497Z,98662.73
2023-03-24T05:32:11.120Z,98662.33
2023-03-24T05:35:34.999Z,98657.74
2023-03-24T05:38:59.066Z,98654.46
2023-03-24T05:42:31.552Z,98656.73
2023-03-24T05:45:57.588Z,98655.64
2023-03-24T05:49:26.684Z,98658.77
2023-03-24T05:52:52.719Z,98659.45
2023-03-24T05:56:38.944Z,98656.48
2023-03-24T06:00:11.370Z,98661.02
2023-03-24T06:03:51.657Z,98661.56
2023-03-24T06:07:16.588Z,98661.39
2023-03-24T06:10:41.674Z,98665.23
2023-03-24T06:14:05.757Z,98666.27
2023-03-24T06:17:38.991Z,98667.00
2023-03-24T06:21:08.622Z,98668.11
2023-03-24T06:24:35.451Z,98666.48
2023-03-24T06:28:06.627Z,98665.98
2023-03-24T06:31:32.756Z,98668.33
2023-03-24T06:34:56.991Z,98675.62
2023-03-24T06:38:29.034Z,98680.38
2023-03-24T06:41:53.490Z,98682.44
2023-03-24T06:45:17.536Z,98683.23
2023-03-24T06:48:45.073Z,98682.95
2023-03-24T06:52:09.142Z,98682.96
2023-03-24T06:55:35.736Z,98685.60
2023-03-24T06:58:59.996Z,98691.08
2023-03-24T07:02:34.525Z,98694.38
2023-03-24T07:06:01.095Z,98695.20
2023-03-24T07:09:24.965Z,98693.73
2023-03-24T07:12:49.360Z,98698.75
2023-03-24T07:16:13.499Z,98696.56
2023-03-24T07:19:37.969Z,98699.16
2023-03-24T07:23:25.786Z,98696.50
2023-03-24T07:26:54.754Z,98698.96
2023-03-24T07:30:27.278Z,98692.78
2023-03-24T07:33:59.773Z,98692.77
2023-03-24T07:37:25.773Z,98696.97
2023-03-24T07:40:49.638Z,98699.86
2023-03-24T07:44:13.759Z,98695.40
2023-03-24T07:47:47.576Z,98694.13
2023-03-24T07:51:11.631Z,98692.63
2023-03-24T07:54:52.728Z,98692.20
2023-03-24T07:58:39.805Z,98691.64
2023-03-24T08:02:19.466Z,98687.75
2023-03-24T08:05:49.427Z,98683.98
2023-03-24T08:09:17.354Z,98686.35
2023-03-24T08:12:41.941Z,98686.20
2023-03-24T08:16:05.918Z,98681.84
2023-03-24T08:19:30.049Z,98676.70
2023-03-24T08:22:54.738Z,98676.44
2023-03-24T08:26:19.869Z,98674.31
2023-03-24T08:29:44.465Z,98672.70
2023-03-24T08:33:08.983Z,98660.34
2023-03-24T08:36:33.754Z,98653.10
2023-03-24T08:39:58.870Z,98651.96
2023-03-24T08:43:24.780Z,98649.52
2023-03-24T08:46:49.019Z,98646.14
2023-03-24T08:50:13.462Z,98644.48
2023-03-24T08:53:39.999Z,98641.38
2023-03-24T08:57:03.902Z,98639.84
2023-03-24T09:00:29.075Z,98633.86
2023-03-24T09:03:53.129Z,98627.46
2023-03-24T09:07:17.091Z,98621.28
2023-03-24T09:10:42.680Z,98618.91
2023-03-24T09:14:06.925Z,98609.59
2023-03-24T09:17:32.817Z,98601.80
2023-03-24T09:20:57.509Z,98591.11
2023-03-24T09:24:21.674Z,98586.61
2023-03-24T09:27:45.967Z,98580.34
2023-03-24T09:31:09.981Z,98579.37
2023-03-24T09:34:34.600Z,98579.46
2023-03-24T09:37:58.523Z,98581.12
2023-03-24T09:41:29.402Z,98575.41
2023-03-24T09:44:59.365Z,98574.08
2023-03-24T09:48:47.947Z,98569.66
2023-03-24T09:52:15.885Z,98562.65
2023-03-24T09:55:43.283Z,98557.18
2023-03-24T09:59:14.856Z,98555.63
2023-03-24T10:02:39.120Z,98553.52
2023-03-24T10:06:11.928Z,98553.04
2023-03-24T10:09:37.446Z,98548.57
2023-03-24T10:13:33.913Z,98546.20
2023-03-24T10:17:15.477Z,98538.23
2023-03-24T10:20:46.684Z,98533.96
2023-03-24T10:24:38.364Z,98525.09
2023-03-24T10:28:39.305Z,98515.65
2023-03-24T10:32:30.245Z,98515.70
2023-03-24T10:36:12.563Z,98507.09
2023-03-24T10:39:44.613Z,98504.22
2023-03-24T10:43:09.647Z,98500.98
2023-03-24T10:46:34.646Z,98494.92
2023-03-24T10:50:14.864Z,98486.86
2023-03-24T10:53:39.762Z,98487.44
2023-03-24T10:57:08.227Z,98484.13
2023-03-24T11:00:33.644Z,98479.50
2023-03-24T11:04:07.292Z,98479.48
2023-03-24T11:07:36.518Z,98471.27
2023-03-24T11:11:00.892Z,98471.93
2023-03-24T11:14:28.983Z,98470.53
2023-03-24T11:18:01.727Z,98471.16
2023-03-24T11:21:27.696Z,98462.77
2023-03-24T11:24:56.177Z,98460.48
2023-03-24T11:28:27.950Z,98452.48
2023-03-24T11:31:57.494Z,98443.79
2023-03-24T11:35:27.055Z,98443.64
2023-03-24T11:39:04.152Z,98435.98
2023-03-24T11:42:28.949Z,98426.73
2023-03-24T11:46:02.369Z,98416.10
2023-03-24T11:49:34.944Z,98410.86
2023-03-24T11:53:07.663Z,98402.94
2023-03-24T11:56:46.504Z,98397.69
2023-03-24T12:00:27.944Z,98398.27
2023-03-24T12:04:26.294Z,98394.98
2023-03-24T12:08:02.967Z,98390.92
2023-03-24T12:11:59.584Z,98377.66
2023-03-24T12:16:04.530Z,98376.80
2023-03-24T12:19:51.934Z,98372.87
2023-03-24T12:23:32.883Z,98368.04
2023-03-24T12:27:01.187Z,98366.10
2023-03-24T12:30:56.533Z,98366.88
2023-03-24T12:34:54.642Z,98359.80
2023-03-24T12:38:24.036Z,98356.20
2023-03-24T12:42:17.391Z,98353.73
2023-03-24T12:45:53.297Z,98353.42
2023-03-24T12:49:31.045Z,98351.65
2023-03-24T12:53:17.962Z,98344.96
2023-03-24T12:56:54.968Z,98341.42
2023-03-24T13:00:19.454Z,98334.57
2023-03-24T13:03:48.739Z,98331.27
2023-03-24T13:07:14.865Z,98321.92
2023-03-24T13:10:40.923Z,98320.11
2023-03-24T13:14:10.436Z,98318.59
2023-03-24T13:17:40.761Z,98315.68
2023-03-24T13:21:11.723Z,98311.05
2023-03-24T13:24:35.909Z,98305.80
2023-03-24T13:28:06.022Z,98301.84
2023-03-24T13:31:35.832Z,98300.54
2023-03-24T13:35:26.198Z,98292.70
2023-03-24T13:39:01.089Z,98287.06
2023-03-24T13:42:37.042Z,98282.18
2023-03-24T13:46:10.811Z,98281.86
2023-03-24T13:49:35.795Z,98272.55
2023-03-24T13:53:07.931Z,98273.87
2023-03-24T13:56:36.132Z,98269.33
2023-03-24T14:00:11.891Z,98269.64
2023-03-24T14:03:44.510Z,98267.73
2023-03-24T14:07:32.111Z,98265.38
2023-03-24T14:10:56.572Z,98258.51
2023-03-24T14:14:22.374Z,98259.80
2023-03-24T14:17:48.940Z,98261.21
2023-03-24T14:21:12.875Z,98261.34
2023-03-24T14:24:37.204Z,98252.81
2023-03-24T14:28:22.301Z,98252.41
2023-03-24T14:32:02.350Z,98247.04
2023-03-24T14:35:35.689Z,98241.45
2023-03-24T14:39:12.509Z,98241.51
2023-03-24T14:42:36.361Z,98237.54
2023-03-24T14:46:06.545Z,98238.29
2023-03-24T14:49:32.975Z,98236.39
2023-03-24T14:53:02.133Z,98235.54
2023-03-24T14:56:39.485Z,98225.91
2023-03-24T15:00:19.734Z,98220.48
2023-03-24T15:04:05.256Z,98220.07
2023-03-24T15:07:29.103Z,98215.56
2023-03-24T15:11:04.225Z,98207.48
2023-03-24T15:14:28.745Z,98202.52
2023-03-24T15:17:53.665Z,98198.98
2023-03-24T15:21:22.795Z,98196.26
2023-03-24T15:24:52.221Z,98193.66
2023-03-24T15:28:22.608Z,98191.02
2023-03-24T15:31:46.786Z,98190.84
2023-03-24T15:35:16.647Z,98187.73
2023-03-24T15:38:47.330Z,98184.23
2023-03-24T15:42:18.561Z,98186.62
2023-03-24T15:46:04.841Z,98177.95
2023-03-24T15:49:37.237Z,98175.52
2023-03-24T15:53:04.289Z,98179.17
2023-03-24T15:56:31.711Z,98175.98
2023-03-24T16:00:01.319Z,98172.46
2023-03-24T16:03:26.882Z,98169.83
2023-03-24T16:06:54.299Z,98168.92
2023-03-24T16:10:33.818Z,98166.95
2023-03-24T16:13:59.087Z,98168.78
2023-03-24T16:17:23.049Z,98167.67
2023-03-24T16:20:47.038Z,98163.65
2023-03-24T16:24:11.386Z,98161.08
2023-03-24T16:27:35.267Z,98158.14
2023-03-24T16:31:04.320Z,98158.06
2023-03-24T16:34:28.559Z,98159.52
2023-03-24T16:37:52.435Z,98162.29
2023-03-24T16:41:17.028Z,98160.98
2023-03-24T16:44:40.915Z,98161.57
2023-03-24T16:48:05.131Z,98161.73
2023-03-24T16:51:29.895Z,98155.58
2023-03-24T16:54:54.697Z,98153.09
2023-03-24T16:58:19.113Z,98153.60
2023-03-24T17:01:46.591Z,98151.52
2023-03-24T17:05:38.235Z,98150.23
2023-03-24T17:09:02.063Z,98148.77
2023-03-24T17:12:26.160Z,98148.61
2023-03-24T17:15:50.676Z,98144.36
2023-03-24T17:19:17.591Z,98142.45
2023-03-24T17:22:45.876Z,98137.94
2023-03-24T17:26:09.751Z,98137.00
2023-03-24T17:29:33.602Z,98133.78
2023-03-24T17:32:58.384Z,98134.33
2023-03-24T17:36:22.337Z,98131.27
2023-03-24T17:39:46.127Z,98135.30
2023-03-24T17:43:10.145Z,98129.17
2023-03-24T17:46:35.011Z,98125.50
2023-03-24T17:49:59.134Z,98132.89
2023-03-24T17:53:25.863Z,98131.29
2023-03-24T17:56:49.936Z,98134.89
2023-03-24T18:00:16.516Z,98134.64
2023-03-24T18:03:40.699Z,98133.13
2023-03-24T18:07:05.005Z,98132.77
2023-03-24T18:10:28.799Z,98134.61
2023-03-24T18:13:52.769Z,98136.27
2023-03-24T18:17:16.899Z,98132.38
2023-03-24T18:20:41.272Z,98132.73
2023-03-24T18:24:06.965Z,98131.05
2023-03-24T18:27:31.356Z,98137.04
2023-03-24T18:30:56.958Z,98136.39
2023-03-24T18:34:22.182Z,98133.80
2023-03-24T18:37:47.394Z,98132.05
2023-03-24T18:41:13.040Z,98137.54
2023-03-24T18:44:37.064Z,98141.95
2023-03-24T18:48:01.119Z,98150.20
2023-03-24T18:51:26.914Z,98151.22
2023-03-24T18:54:51.250Z,98151.15
2023-03-24T18:58:16.076Z,98149.47
2023-03-24T19:01:40.173Z,98153.76
2023-03-24T19:05:05.323Z,98151.53
2023-03-24T19:08:29.521Z,98155.61
2023-03-24T19:11:53.362Z,98152.92
2023-03-24T19:15:18.440Z,98152.48
2023-03-24T19:18:42.452Z,98150.23
2023-03-24T19:22:07.572Z,98152.73
2023-03-24T19:25:31.902Z,98151.98
2023-03-24T19:28:55.713Z,98153.22
2023-03-24T19:32:19.604Z,98152.67
2023-03-24T19:35:43.667Z,98155.27
2023-03-24T19:39:07.742Z,98154.08
2023-03-24T19:42:33.317Z,98151.09
2023-03-24T19:46:03.776Z,98141.59
2023-03-24T19:49:27.912Z,98140.73
2023-03-24T19:52:52.058Z,98140.74
2023-03-24T19:56:17.508Z,98141.52
2023-03-24T19:59:41.403Z,98137.09
2023-03-24T20:03:05.878Z,98138.30
2023-03-24T20:06:30.447Z,98132.55
2023-03-24T20:09:54.378Z,98134.20
2023-03-24T20:13:18.658Z,98133.33
2023-03-24T20:16:43.904Z,98135.58
2023-03-24T20:20:10.420Z,98133.28
2023-03-24T20:23:36.668Z,98129.83
2023-03-24T20:27:00.942Z,98134.02
2023-03-24T20:30:26.457Z,98134.41
2023-03-24T20:33:50.394Z,98137.03
2023-03-24T20:37:15.648Z,98143.23
2023-03-24T20:40:39.624Z,98144.22
2023-03-24T20:44:03.480Z,98153.89
2023-03-24T20:47:27.511Z,98152.73
2023-03-24T20:50:52.908Z,98151.98
2023-03-24T20:54:17.085Z,98143.98
2023-03-24T20:57:43.870Z,98141.09
2023-03-24T21:01:22.328Z,98136.46
2023-03-24T21:04:46.252Z,98129.92
2023-03-24T21:08:10.315Z,98124.63
2023-03-24T21:11:34.828Z,98125.89
2023-03-24T21:14:58.716Z,98117.55
2023-03-24T21:18:22.513Z,98115.45
2023-03-24T21:21:49.530Z,98109.92
2023-03-24T21:25:13.563Z,98107.19
2023-03-24T21:28:37.504Z,98104.77
2023-03-24T21:32:01.734Z,98102.81
2023-03-24T21:35:26.183Z,98102.72
2023-03-24T21:38:54.138Z,98105.85
2023-03-24T21:42:19.532Z,98103.15
2023-03-24T21:45:46.500Z,98101.42
2023-03-24T21:49:11.274Z,98102.61
2023-03-24T21:52:43.431Z,98108.52
2023-03-24T21:56:09.352Z,98109.94
2023-03-24T21:59:40.604Z,98110.33
2023-03-24T22:03:05.741Z,98111.56
2023-03-24T22:06:29.869Z,98108.49
2023-03-24T22:09:54.455Z,98112.77
2023-03-24T22:13:20.891Z,98113.59
2023-03-24T22:16:44.723Z,98114.23
2023-03-24T22:20:09.770Z,98106.19
2023-03-24T22:23:36.788Z,98109.75
2023-03-24T22:27:02.289Z,98108.29
2023-03-24T22:30:26.229Z,98112.47
2023-03-24T22:33:50.619Z,98113.01
2023-03-24T22:37:14.603Z,98113.38
2023-03-24T22:40:39.062Z,98108.17
2023-03-24T22:44:02.982Z,98117.17
2023-03-24T22:47:27.485Z,98116.85
2023-03-24T22:50:52.131Z,98118.90
2023-03-24T22:54:16.023Z,98120.36
2023-03-24T22:57:39.868Z,98121.23
2023-03-24T23:01:03.893Z,98119.39
2023-03-24T23:04:27.889Z,98121.45
2023-03-24T23:07:51.724Z,98121.55
2023-03-24T23:11:15.654Z,98125.40
2023-03-24T23:14:39.437Z,98120.36
2023-03-24T23:18:03.592Z,98121.44
2023-03-24T23:21:28.508Z,98124.63
2023-03-24T23:25:01.975Z,98121.98
2023-03-24T23:28:27.093Z,98126.91
2023-03-24T23:31:51.081Z,98126.21
2023-03-24T23:35:15.676Z,98123.66
2023-03-24T23:38:50.630Z,98120.36
2023-03-24T23:42:14.478Z,98117.44
2023-03-24T23:45:38.664Z,98118.80
2023-03-24T23:49:02.510Z,98120.80
2023-03-24T23:52:28.420Z,98117.94
2023-03-24T23:55:57.421Z,98117.55
2023-03-24T23:59:23.115Z,98115.21
